Time;durP1;ratioP1;P1;durP2;ratioP2;P2;SDS_P1;SDS_P2;PMS_P1;PMS_P2;Temp;Humidity;BMP_temperature;BMP_pressure;BME280_temperature;BME280_humidity;BME280_pressure;Samples;Min_cycle;Max_cycle;Signal;HPM_P1;HPM_P2
2023/01/10 00:01:40;;;;;;;32.50;14.50;;;;;;;3.81;nan;94343.22;5010562;28;20276;-67
2023/01/10 00:04:06;;;;;;;33.83;15.63;;;;;;;3.85;nan;94305.44;5010786;28;20292;-68
2023/01/10 00:06:33;;;;;;;31.03;15.90;;;;;;;3.87;nan;94328.84;5009188;28;20203;-68
2023/01/10 00:09:00;;;;;;;21.93;13.50;;;;;;;3.85;nan;94315.47;5009223;28;20214;-68
2023/01/10 00:14:12;;;;;;;28.27;15.53;;;;;;;3.84;nan;94296.22;5010546;28;20202;-68
2023/01/10 00:16:41;;;;;;;29.03;16.07;;;;;;;3.79;nan;94320.63;5009419;28;20313;-68
2023/01/10 00:19:09;;;;;;;35.90;17.13;;;;;;;3.73;nan;94311.50;5008864;28;21533;-68
2023/01/10 00:21:36;;;;;;;23.43;13.53;;;;;;;3.68;nan;94287.34;5009020;28;20211;-68
2023/01/10 00:24:15;;;;;;;28.60;15.88;;;;;;;3.78;nan;94311.44;5008031;28;20612;-68
2023/01/10 00:26:49;;;;;;;33.53;17.77;;;;;;;3.88;nan;94280.22;5006921;28;20298;-68
2023/01/10 00:29:17;;;;;;;26.38;12.95;;;;;;;3.80;nan;94287.09;5008014;28;20287;-68
2023/01/10 00:31:43;;;;;;;28.33;14.50;;;;;;;3.87;nan;94282.78;5007891;28;20207;-68
2023/01/10 00:34:10;;;;;;;32.75;15.30;;;;;;;3.86;nan;94279.44;5007677;28;20272;-68
2023/01/10 00:36:37;;;;;;;25.27;14.52;;;;;;;3.84;nan;94282.84;5008680;28;20264;-68
2023/01/10 00:39:11;;;;;;;25.63;13.15;;;;;;;3.76;nan;94290.53;5008451;28;20234;-68
2023/01/10 00:44:24;;;;;;;30.08;14.80;;;;;;;3.71;nan;94264.69;5008604;28;21606;-68
2023/01/10 00:46:51;;;;;;;29.00;15.33;;;;;;;3.74;nan;94195.06;5008584;28;20587;-68
2023/01/10 00:49:18;;;;;;;21.95;12.82;;;;;;;3.75;nan;94268.75;5008756;28;20210;-68
2023/01/10 00:51:45;;;;;;;25.60;14.17;;;;;;;3.92;nan;94190.53;5008214;28;20230;-68
2023/01/10 00:54:13;;;;;;;24.95;14.25;;;;;;;3.99;nan;94308.47;5010289;28;20207;-67
2023/01/10 00:56:40;;;;;;;25.38;13.10;;;;;;;3.90;nan;94260.94;5007758;28;20196;-67
2023/01/10 00:59:07;;;;;;;28.37;15.20;;;;;;;3.91;nan;94300.28;5008080;28;20214;-68
2023/01/10 01:01:36;;;;;;;21.23;10.93;;;;;;;3.82;nan;94255.22;5007668;28;20203;-70
2023/01/10 01:04:02;;;;;;;26.02;14.90;;;;;;;3.85;nan;94260.19;5008710;28;20226;-69
2023/01/10 01:06:29;;;;;;;16.27;11.80;;;;;;;3.81;nan;94233.47;5008298;28;20199;-67
2023/01/10 01:08:56;;;;;;;25.00;13.87;;;;;;;3.91;nan;94272.63;5009537;28;20869;-68
2023/01/10 01:11:23;;;;;;;26.88;14.63;;;;;;;3.92;nan;94255.88;5008170;28;20222;-68
2023/01/10 01:13:50;;;;;;;19.77;10.87;;;;;;;3.91;nan;94245.00;5007964;28;20203;-69
2023/01/10 01:16:17;;;;;;;25.33;13.98;;;;;;;3.86;nan;94276.94;5007033;28;20301;-68
2023/01/10 01:18:46;;;;;;;25.67;14.63;;;;;;;3.97;nan;94249.88;5007655;28;20210;-68
2023/01/10 01:21:12;;;;;;;23.70;13.83;;;;;;;4.05;nan;94263.09;5007475;28;20206;-68
2023/01/10 01:23:39;;;;;;;22.50;13.17;;;;;;;4.19;nan;94239.38;5009150;28;20289;-68
2023/01/10 01:26:06;;;;;;;21.33;13.18;;;;;;;4.18;nan;94241.06;5009082;28;20287;-68
2023/01/10 01:28:33;;;;;;;20.73;13.63;;;;;;;4.16;nan;94229.38;5010019;28;20222;-66
2023/01/10 01:31:00;;;;;;;21.00;13.60;;;;;;;4.06;nan;94248.84;5008572;28;20257;-68
2023/01/10 01:33:26;;;;;;;25.87;13.70;;;;;;;4.00;nan;94226.34;5007626;28;20195;-69
2023/01/10 01:35:55;;;;;;;26.15;14.48;;;;;;;4.14;nan;94283.91;5007088;28;21899;-67
2023/01/10 01:38:21;;;;;;;24.80;14.50;;;;;;;4.25;nan;94259.31;5006985;28;20242;-67
2023/01/10 01:40:48;;;;;;;20.73;11.82;;;;;;;4.17;nan;94226.00;5007619;28;20218;-67
2023/01/10 01:43:23;;;;;;;20.63;13.23;;;;;;;4.11;nan;94201.81;5007816;28;20226;-67
2023/01/10 01:45:51;;;;;;;22.25;14.60;;;;;;;4.22;nan;94254.34;5007617;28;20711;-67
2023/01/10 01:48:28;;;;;;;24.58;13.60;;;;;;;4.13;nan;94239.50;5006295;28;20206;-67
2023/01/10 01:51:04;;;;;;;23.35;14.07;;;;;;;4.13;nan;94244.53;5007868;28;20206;-68
2023/01/10 01:53:35;;;;;;;21.30;13.20;;;;;;;4.09;nan;94269.72;5007931;28;20199;-69
2023/01/10 01:56:08;;;;;;;20.88;13.02;;;;;;;4.20;nan;94190.72;5006265;28;20715;-68
2023/01/10 01:58:42;;;;;;;18.00;11.40;;;;;;;4.08;nan;94227.03;5006352;28;20632;-68
2023/01/10 02:01:10;;;;;;;18.27;12.80;;;;;;;4.28;nan;94208.97;5007327;28;20298;-69
2023/01/10 02:03:39;;;;;;;21.60;11.87;;;;;;;4.20;nan;94200.78;5009606;28;20230;-68
2023/01/10 02:06:08;;;;;;;20.43;13.17;;;;;;;4.15;nan;94197.53;5011759;28;20814;-69
2023/01/10 02:08:36;;;;;;;21.23;13.02;;;;;;;4.25;nan;94234.19;5009204;28;20207;-68
2023/01/10 02:11:08;;;;;;;24.20;15.17;;;;;;;4.40;nan;94203.66;5010608;28;20716;-66
2023/01/10 02:13:40;;;;;;;19.77;13.47;;;;;;;4.41;nan;94235.50;5011299;28;20199;-67
2023/01/10 02:16:07;;;;;;;21.43;13.40;;;;;;;4.33;nan;94194.59;5011534;28;20659;-66
2023/01/10 02:18:34;;;;;;;17.53;12.60;;;;;;;4.25;nan;94188.91;5014500;28;20207;-68
2023/01/10 02:21:33;;;;;;;26.67;13.30;;;;;;;4.19;nan;94168.97;5010842;28;20256;-68
2023/01/10 02:24:41;;;;;;;25.83;12.83;;;;;;;4.44;nan;94190.16;5011176;28;20226;-68
2023/01/10 02:27:22;;;;;;;20.17;13.83;;;;;;;4.50;nan;94184.94;5011605;28;20211;-67
2023/01/10 02:30:21;;;;;;;15.98;10.18;;;;;;;4.28;nan;94166.22;5009366;28;20261;-68
2023/01/10 02:32:54;;;;;;;18.10;11.77;;;;;;;4.19;nan;94163.94;5010167;28;20238;-69
2023/01/10 02:36:00;;;;;;;16.10;9.87;;;;;;;4.13;nan;94161.56;5009254;28;20451;-68
2023/01/10 02:38:40;;;;;;;13.33;9.17;;;;;;;4.14;nan;94186.66;4993766;28;20234;-68
2023/01/10 02:41:18;;;;;;;17.80;11.50;;;;;;;4.10;nan;94165.78;5010981;28;20195;-68
2023/01/10 02:43:50;;;;;;;16.87;9.77;;;;;;;4.02;nan;94191.94;5010867;28;20230;-68
2023/01/10 02:46:23;;;;;;;23.73;11.27;;;;;;;4.04;nan;94168.44;5011508;28;20700;-69
2023/01/10 02:48:52;;;;;;;18.40;12.47;;;;;;;4.16;nan;94195.00;5010255;28;20904;-67
2023/01/10 02:51:21;;;;;;;18.70;12.55;;;;;;;4.03;nan;94171.81;5014011;28;20207;-66
2023/01/10 02:53:52;;;;;;;20.80;13.17;;;;;;;4.17;nan;94166.47;5011231;28;20207;-68
2023/01/10 02:57:03;;;;;;;18.73;11.77;;;;;;;4.18;nan;94184.91;5010611;28;20207;-69
2023/01/10 03:00:01;;;;;;;20.63;12.30;;;;;;;4.19;nan;94187.38;5009543;28;20203;-68
2023/01/10 03:02:44;;;;;;;23.10;14.07;;;;;;;4.30;nan;94203.03;5009867;28;20211;-68
2023/01/10 03:05:22;;;;;;;20.17;12.90;;;;;;;4.30;nan;94187.13;5010659;28;20794;-68
2023/01/10 03:07:56;;;;;;;19.90;13.68;;;;;;;4.53;nan;94194.94;5010603;28;20203;-68
2023/01/10 03:10:29;;;;;;;21.47;12.70;;;;;;;4.42;nan;94185.16;5008511;28;20228;-67
2023/01/10 03:13:01;;;;;;;17.92;12.85;;;;;;;4.30;nan;94177.88;5009630;28;21196;-70
2023/01/10 03:15:32;;;;;;;20.05;13.48;;;;;;;4.38;nan;94208.72;5008327;28;20579;-68
2023/01/10 03:18:02;;;;;;;19.65;13.35;;;;;;;4.50;nan;94186.63;5008062;28;20256;-69
2023/01/10 03:20:33;;;;;;;21.38;13.45;;;;;;;4.51;nan;94195.84;5007560;28;20207;-68
2023/01/10 03:23:03;;;;;;;18.50;12.53;;;;;;;4.56;nan;94202.41;5007539;28;20256;-68
2023/01/10 03:25:34;;;;;;;17.88;13.70;;;;;;;4.47;nan;94185.03;5007046;28;20230;-68
2023/01/10 03:28:07;;;;;;;22.58;13.27;;;;;;;4.68;nan;94204.66;5007449;28;20247;-71
2023/01/10 03:30:42;;;;;;;18.20;12.65;;;;;;;4.60;nan;94201.50;5006618;28;20202;-70
2023/01/10 03:33:11;;;;;;;19.20;12.32;;;;;;;4.52;nan;94203.34;5007241;28;20611;-68
2023/01/10 03:35:51;;;;;;;18.47;12.33;;;;;;;4.69;nan;94201.28;5006989;28;20203;-69
2023/01/10 03:38:25;;;;;;;18.02;11.23;;;;;;;4.62;nan;94194.72;5007463;28;20634;-69
2023/01/10 03:40:59;;;;;;;18.58;11.63;;;;;;;4.71;nan;94191.97;5007521;28;20207;-70
2023/01/10 03:46:27;;;;;;;17.45;12.23;;;;;;;4.79;nan;94185.06;5007652;28;20287;-71
2023/01/10 03:48:57;;;;;;;19.75;12.35;;;;;;;4.92;nan;94177.22;5009432;28;20203;-68
2023/01/10 03:51:27;;;;;;;17.63;11.90;;;;;;;4.87;nan;94181.53;5009798;28;20745;-68
2023/01/10 03:53:54;;;;;;;17.60;12.70;;;;;;;4.73;nan;94180.19;5009832;28;20727;-68
2023/01/10 03:56:21;;;;;;;18.88;12.23;;;;;;;4.73;nan;94166.75;5010264;28;20651;-69
2023/01/10 03:58:48;;;;;;;19.42;12.27;;;;;;;4.63;nan;94145.22;5009029;28;21389;-68
2023/01/10 04:01:15;;;;;;;17.30;12.13;;;;;;;4.55;nan;94132.00;5004468;28;20694;-69
2023/01/10 04:03:42;;;;;;;17.77;11.82;;;;;;;4.62;nan;94114.22;5010481;28;20227;-67
2023/01/10 04:06:09;;;;;;;15.40;10.95;;;;;;;4.61;nan;94099.16;5009590;28;20599;-68
2023/01/10 04:08:38;;;;;;;18.50;12.43;;;;;;;4.54;nan;94106.03;5011255;28;20215;-68
2023/01/10 04:11:05;;;;;;;19.52;11.93;;;;;;;4.50;nan;94093.56;5009202;28;20207;-68
2023/01/10 04:13:32;;;;;;;22.03;11.67;;;;;;;4.39;nan;94087.13;5011176;28;20217;-68
2023/01/10 04:15:59;;;;;;;18.53;12.23;;;;;;;4.39;nan;94087.13;5011297;28;20741;-68
2023/01/10 04:18:26;;;;;;;18.23;12.70;;;;;;;4.53;nan;94098.50;5009794;28;20214;-69
2023/01/10 04:20:53;;;;;;;17.40;12.23;;;;;;;4.47;nan;94107.03;5008071;28;20211;-68
2023/01/10 04:23:20;;;;;;;17.10;12.40;;;;;;;4.49;nan;94132.16;5009881;28;20211;-68
2023/01/10 04:25:49;;;;;;;22.02;13.02;;;;;;;4.46;nan;94150.66;5008005;28;20227;-68
2023/01/10 04:28:17;;;;;;;15.48;11.95;;;;;;;4.47;nan;94174.97;5007882;28;20206;-68
2023/01/10 04:30:43;;;;;;;16.95;12.60;;;;;;;4.59;nan;94184.75;5008978;28;20691;-66
2023/01/10 04:33:11;;;;;;;18.53;11.37;;;;;;;4.60;nan;94183.88;5009528;28;22641;-69
2023/01/10 04:35:38;;;;;;;20.05;11.35;;;;;;;4.78;nan;94170.00;5007516;28;20207;-69
2023/01/10 04:38:05;;;;;;;16.07;11.17;;;;;;;4.85;nan;94200.88;5009034;28;20234;-69
2023/01/10 04:40:31;;;;;;;17.00;13.25;;;;;;;4.93;nan;94214.09;5006543;28;20211;-68
2023/01/10 04:43:00;;;;;;;17.03;11.40;;;;;;;4.92;nan;94185.59;5005855;28;20293;-71
2023/01/10 04:45:27;;;;;;;17.80;12.77;;;;;;;5.01;nan;94179.47;5005832;28;20828;-68
2023/01/10 04:47:55;;;;;;;16.60;10.90;;;;;;;5.01;nan;94167.69;5007029;28;20203;-68
2023/01/10 04:50:23;;;;;;;22.03;11.53;;;;;;;5.04;nan;94167.63;5006467;28;20738;-68
2023/01/10 04:52:50;;;;;;;14.63;11.57;;;;;;;4.98;nan;94145.13;5004283;28;20207;-68
2023/01/10 04:55:17;;;;;;;15.02;11.15;;;;;;;5.26;nan;94152.75;5006752;28;20549;-69
2023/01/10 04:57:44;;;;;;;17.00;11.57;;;;;;;5.33;nan;94164.31;5009546;28;20203;-68
2023/01/10 05:00:13;;;;;;;17.38;11.98;;;;;;;5.39;nan;94171.72;5007065;28;20716;-69
2023/01/10 05:02:42;;;;;;;16.48;11.57;;;;;;;5.30;nan;94154.31;5006135;28;20206;-69
2023/01/10 05:05:10;;;;;;;17.75;12.07;;;;;;;5.13;nan;94151.47;5007766;28;20276;-68
2023/01/10 05:07:38;;;;;;;15.43;11.65;;;;;;;5.06;nan;94150.78;5007787;28;20211;-71
2023/01/10 05:10:06;;;;;;;18.33;11.93;;;;;;;5.17;nan;94153.03;5008286;28;20217;-70
2023/01/10 05:12:33;;;;;;;17.25;12.13;;;;;;;5.01;nan;94144.22;5007637;28;20940;-70
2023/01/10 05:15:00;;;;;;;17.80;11.38;;;;;;;5.05;nan;94149.13;5007861;28;20336;-71
2023/01/10 05:17:29;;;;;;;20.60;12.90;;;;;;;5.02;nan;94139.16;5009093;28;20305;-68
2023/01/10 05:19:55;;;;;;;24.13;12.05;;;;;;;4.84;nan;94123.72;5007800;28;20202;-68
2023/01/10 05:22:22;;;;;;;19.13;12.70;;;;;;;5.02;nan;94129.06;5006578;28;21065;-68
2023/01/10 05:24:49;;;;;;;16.83;12.13;;;;;;;5.23;nan;94132.69;5006840;28;20276;-68
2023/01/10 05:27:16;;;;;;;16.65;11.85;;;;;;;5.38;nan;94127.25;5006199;28;20210;-68
2023/01/10 05:29:44;;;;;;;18.45;12.05;;;;;;;5.41;nan;94127.16;5009116;28;20198;-68
2023/01/10 05:32:10;;;;;;;21.27;12.32;;;;;;;5.64;nan;94125.66;5008446;28;20686;-67
2023/01/10 05:34:39;;;;;;;16.52;11.38;;;;;;;5.46;nan;94129.50;5006337;28;20203;-67
2023/01/10 05:37:05;;;;;;;16.35;11.68;;;;;;;5.34;nan;94140.78;5008237;28;20245;-68
2023/01/10 05:39:32;;;;;;;17.33;12.27;;;;;;;5.38;nan;94152.44;5010768;28;20307;-68
2023/01/10 05:41:59;;;;;;;29.38;16.90;;;;;;;5.56;nan;94156.13;5010962;28;20676;-68
2023/01/10 05:44:26;;;;;;;19.33;12.00;;;;;;;5.55;nan;94158.66;5011236;28;20230;-67
2023/01/10 05:46:53;;;;;;;17.80;11.82;;;;;;;5.57;nan;94161.97;5011173;28;20209;-69
2023/01/10 05:49:19;;;;;;;15.47;10.70;;;;;;;5.56;nan;94157.81;5011475;28;20226;-69
2023/01/10 05:51:48;;;;;;;15.63;11.45;;;;;;;5.54;nan;94152.81;5010582;28;20753;-70
2023/01/10 05:54:15;;;;;;;17.33;11.20;;;;;;;5.37;nan;94139.88;5011104;28;20203;-70
2023/01/10 05:56:42;;;;;;;19.58;12.50;;;;;;;5.31;nan;94142.56;5011507;28;20211;-68
2023/01/10 05:59:08;;;;;;;14.27;11.50;;;;;;;5.38;nan;94134.78;5011368;28;20214;-67
2023/01/10 06:01:35;;;;;;;22.35;12.10;;;;;;;5.42;nan;94148.13;5010646;28;20215;-69
2023/01/10 06:04:02;;;;;;;16.38;11.98;;;;;;;5.43;nan;94150.63;5010300;28;20210;-69
2023/01/10 06:06:29;;;;;;;14.43;11.25;;;;;;;5.47;nan;94149.63;5011191;28;20342;-70
2023/01/10 06:08:58;;;;;;;16.88;11.35;;;;;;;5.45;nan;94151.38;5011312;28;20211;-69
2023/01/10 06:11:28;;;;;;;17.50;11.07;;;;;;;5.27;nan;94138.47;5011068;28;20217;-69
2023/01/10 06:13:55;;;;;;;16.47;11.13;;;;;;;5.43;nan;94145.56;5011240;28;20214;-68
2023/01/10 06:16:22;;;;;;;18.08;12.55;;;;;;;5.38;nan;94152.44;5010177;28;20206;-69
2023/01/10 06:18:52;;;;;;;16.83;10.52;;;;;;;5.44;nan;94156.47;5011412;28;20758;-69
2023/01/10 06:21:18;;;;;;;16.75;11.35;;;;;;;5.40;nan;94155.72;5011786;28;20599;-70
2023/01/10 06:23:45;;;;;;;19.27;12.57;;;;;;;5.56;nan;94156.13;5009644;28;20207;-69
2023/01/10 06:26:13;;;;;;;19.92;12.55;;;;;;;5.72;nan;94151.44;5009151;28;20266;-69
2023/01/10 06:28:40;;;;;;;18.60;11.13;;;;;;;5.83;nan;94159.53;5010530;28;20203;-69
2023/01/10 06:31:08;;;;;;;18.42;12.18;;;;;;;5.89;nan;94154.34;5010419;28;20691;-69
2023/01/10 06:33:35;;;;;;;23.23;12.30;;;;;;;5.97;nan;94152.38;5010682;28;20350;-69
2023/01/10 06:36:02;;;;;;;20.65;11.73;;;;;;;6.09;nan;94152.03;5010210;28;20750;-69
2023/01/10 06:38:28;;;;;;;19.38;12.57;;;;;;;6.03;nan;94141.28;5010870;28;20851;-71
2023/01/10 06:40:55;;;;;;;23.80;13.15;;;;;;;6.04;nan;94143.78;5010555;28;20699;-68
2023/01/10 06:43:23;;;;;;;20.88;13.13;;;;;;;6.09;nan;94146.16;5008788;28;21584;-70
2023/01/10 06:45:50;;;;;;;22.33;14.25;;;;;;;6.06;nan;94152.13;5010008;28;20235;-69
2023/01/10 06:48:17;;;;;;;19.88;14.38;;;;;;;5.99;nan;94159.91;5009537;28;20722;-69
2023/01/10 06:50:44;;;;;;;23.77;14.40;;;;;;;5.96;nan;94150.75;5008927;28;20207;-70
2023/01/10 06:53:10;;;;;;;24.92;14.90;;;;;;;6.07;nan;94153.78;5009689;28;20203;-70
2023/01/10 06:55:37;;;;;;;25.00;15.55;;;;;;;6.08;nan;94147.84;5009319;28;20213;-69
2023/01/10 06:58:04;;;;;;;25.33;16.50;;;;;;;6.17;nan;94154.31;5009230;28;21633;-69
2023/01/10 07:00:33;;;;;;;31.23;17.83;;;;;;;6.25;nan;94149.84;5009725;28;20318;-71
2023/01/10 07:03:01;;;;;;;39.20;22.25;;;;;;;6.35;nan;94135.25;5009147;28;20210;-70
2023/01/10 07:05:29;;;;;;;33.55;20.30;;;;;;;6.34;nan;94146.22;5008787;28;20803;-68
2023/01/10 07:07:57;;;;;;;35.58;20.80;;;;;;;6.40;nan;94130.88;5008258;28;20555;-70
2023/01/10 07:10:23;;;;;;;34.28;19.13;;;;;;;6.47;nan;94133.13;5009783;28;20242;-69
2023/01/10 07:12:50;;;;;;;30.08;17.20;;;;;;;6.59;nan;94131.94;5009568;28;20577;-70
2023/01/10 07:15:17;;;;;;;22.42;15.50;;;;;;;6.48;nan;94119.66;5008837;28;20226;-71
2023/01/10 07:17:45;;;;;;;27.05;16.58;;;;;;;6.25;nan;94116.22;5008059;28;20215;-69
2023/01/10 07:20:12;;;;;;;24.10;15.73;;;;;;;6.13;nan;94114.94;5009870;28;20746;-68
2023/01/10 07:22:39;;;;;;;29.52;16.75;;;;;;;5.92;nan;94108.88;5009368;28;20339;-69
2023/01/10 07:25:07;;;;;;;29.15;17.08;;;;;;;5.83;nan;94114.16;5009734;28;20246;-69
2023/01/10 07:27:34;;;;;;;28.58;18.10;;;;;;;5.89;nan;94108.94;5007259;28;20214;-70
2023/01/10 07:30:01;;;;;;;29.20;17.27;;;;;;;5.91;nan;94112.25;5009038;28;20210;-69
2023/01/10 07:32:28;;;;;;;31.48;18.58;;;;;;;5.80;nan;94099.94;5009144;28;20230;-69
2023/01/10 07:34:56;;;;;;;29.70;17.15;;;;;;;5.99;nan;94109.47;5009884;28;20688;-69
2023/01/10 07:37:23;;;;;;;28.48;18.70;;;;;;;5.98;nan;94105.31;5007715;28;20207;-68
2023/01/10 07:39:49;;;;;;;34.80;16.17;;;;;;;5.96;nan;94110.38;5009730;28;20239;-69
2023/01/10 07:42:16;;;;;;;29.48;17.50;;;;;;;6.18;nan;94107.22;5008729;28;20225;-70
2023/01/10 07:44:43;;;;;;;29.08;17.83;;;;;;;6.10;nan;94098.19;5009511;28;20212;-70
2023/01/10 07:47:10;;;;;;;26.10;17.70;;;;;;;6.06;nan;94096.63;5008699;28;20203;-68
2023/01/10 07:49:37;;;;;;;30.15;16.30;;;;;;;6.16;nan;94106.44;5006708;28;20235;-69
2023/01/10 07:52:07;;;;;;;25.98;16.02;;;;;;;6.23;nan;94097.78;5008782;28;20706;-69
2023/01/10 07:54:34;;;;;;;27.23;16.58;;;;;;;6.19;nan;94101.31;5008850;28;20295;-69
2023/01/10 07:57:01;;;;;;;27.63;16.65;;;;;;;6.38;nan;94094.78;5008396;28;20680;-68
2023/01/10 07:59:28;;;;;;;24.75;16.15;;;;;;;6.40;nan;94098.91;5008447;28;20258;-69
2023/01/10 08:01:55;;;;;;;23.42;16.40;;;;;;;6.51;nan;94096.00;5008061;28;20233;-68
2023/01/10 08:04:21;;;;;;;27.27;16.95;;;;;;;6.54;nan;94093.38;5009206;28;20590;-67
2023/01/10 08:06:48;;;;;;;28.13;16.50;;;;;;;6.59;nan;94098.28;5006226;28;20711;-70
2023/01/10 08:09:16;;;;;;;27.48;17.73;;;;;;;6.70;nan;94094.50;5007887;28;20268;-68
2023/01/10 08:11:43;;;;;;;25.02;16.63;;;;;;;6.64;nan;94094.75;5009186;28;20265;-70
2023/01/10 08:14:10;;;;;;;26.88;16.30;;;;;;;6.70;nan;94094.50;5008933;28;20211;-69
2023/01/10 08:16:37;;;;;;;29.25;16.95;;;;;;;6.74;nan;94090.19;5008216;28;20211;-69
2023/01/10 08:19:04;;;;;;;29.70;18.17;;;;;;;6.73;nan;94094.41;5006631;28;20224;-69
2023/01/10 08:21:30;;;;;;;32.72;18.67;;;;;;;6.81;nan;94092.44;5008133;28;20280;-69
2023/01/10 08:23:57;;;;;;;31.40;19.35;;;;;;;6.70;nan;94089.47;5008111;28;20214;-69
2023/01/10 08:26:25;;;;;;;31.63;20.58;;;;;;;6.74;nan;94083.44;5007881;28;20227;-70
2023/01/10 08:28:52;;;;;;;34.05;18.38;;;;;;;6.42;nan;94073.63;5007047;28;20211;-70
2023/01/10 08:31:19;;;;;;;34.70;19.75;;;;;;;6.27;nan;94058.97;5008137;28;22063;-70
2023/01/10 08:33:46;;;;;;;33.85;17.88;;;;;;;6.30;nan;94048.78;5007458;28;20213;-68
2023/01/10 08:36:17;;;;;;;33.22;19.35;;;;;;;6.44;nan;94051.66;5008633;28;20207;-69
2023/01/10 08:38:43;;;;;;;33.38;19.27;;;;;;;6.44;nan;94054.19;5007601;28;20246;-69
2023/01/10 08:41:10;;;;;;;31.90;19.08;;;;;;;6.39;nan;94048.50;5007997;28;20230;-68
2023/01/10 08:43:39;;;;;;;33.58;18.58;;;;;;;6.48;nan;94046.47;5007982;28;20241;-69
2023/01/10 08:46:06;;;;;;;30.58;18.67;;;;;;;6.45;nan;94040.69;5008359;28;20293;-69
2023/01/10 08:48:33;;;;;;;35.35;20.48;;;;;;;6.61;nan;94049.41;5007289;28;22281;-68
2023/01/10 08:51:06;;;;;;;36.45;23.48;;;;;;;6.73;nan;94043.91;5008167;28;20207;-68
2023/01/10 08:53:32;;;;;;;39.35;22.00;;;;;;;6.67;nan;94033.22;5007373;28;20679;-70
2023/01/10 08:55:59;;;;;;;47.38;23.52;;;;;;;6.82;nan;94047.81;5007901;28;20207;-69
2023/01/10 08:58:26;;;;;;;36.95;20.02;;;;;;;6.95;nan;94048.19;5007018;28;20203;-69
2023/01/10 09:00:54;;;;;;;38.53;21.60;;;;;;;6.86;nan;94048.53;5006946;28;20203;-69
2023/01/10 09:03:21;;;;;;;39.78;20.15;;;;;;;6.89;nan;94048.44;5007494;28;20211;-68
2023/01/10 09:05:47;;;;;;;31.95;18.98;;;;;;;6.92;nan;94040.75;5007418;28;20599;-68
2023/01/10 09:08:14;;;;;;;28.63;19.10;;;;;;;6.97;nan;94036.34;5006569;28;20745;-69
2023/01/10 09:10:41;;;;;;;41.35;20.35;;;;;;;7.06;nan;94036.03;5007440;28;20242;-68
2023/01/10 09:13:08;;;;;;;30.38;18.88;;;;;;;7.09;nan;94028.34;5007076;28;20199;-69
2023/01/10 09:15:37;;;;;;;36.20;20.98;;;;;;;7.14;nan;94029.81;5007638;28;20699;-69
2023/01/10 09:18:07;;;;;;;36.45;21.15;;;;;;;7.21;nan;94037.16;5007782;28;20207;-70
2023/01/10 09:20:36;;;;;;;38.53;22.70;;;;;;;7.25;nan;94036.97;5006226;28;20207;-70
2023/01/10 09:23:07;;;;;;;37.00;20.77;;;;;;;7.21;nan;94017.75;5007654;28;20220;-69
2023/01/10 09:25:34;;;;;;;30.67;19.48;;;;;;;7.31;nan;94028.34;5006877;28;20238;-69
2023/01/10 09:28:02;;;;;;;32.75;19.48;;;;;;;7.27;nan;94035.22;5006831;28;20203;-70
2023/01/10 09:30:30;;;;;;;33.58;20.75;;;;;;;7.31;nan;94028.34;5007296;28;20211;-69
2023/01/10 09:32:58;;;;;;;34.03;20.90;;;;;;;7.14;nan;94023.94;5007920;28;20207;-69
2023/01/10 09:35:27;;;;;;;33.30;22.00;;;;;;;7.26;nan;94023.47;5006404;28;20221;-69
2023/01/10 09:37:55;;;;;;;37.30;21.25;;;;;;;7.26;nan;94018.41;5006581;28;20211;-69
2023/01/10 09:40:33;;;;;;;39.45;22.98;;;;;;;7.38;nan;94015.44;5007103;28;20628;-69
2023/01/10 09:43:10;;;;;;;40.05;22.60;;;;;;;7.46;nan;94005.03;5006444;28;20214;-69
2023/01/10 09:45:47;;;;;;;39.75;23.52;;;;;;;7.50;nan;94002.31;5006069;28;20230;-70
2023/01/10 09:48:21;;;;;;;38.92;24.10;;;;;;;7.48;nan;93993.97;5007164;28;20268;-69
2023/01/10 09:51:04;;;;;;;37.55;21.15;;;;;;;7.53;nan;93991.28;5008658;28;20206;-71
2023/01/10 09:53:34;;;;;;;39.70;23.33;;;;;;;7.48;nan;93991.44;5005067;28;20199;-70
2023/01/10 09:56:02;;;;;;;41.08;23.38;;;;;;;7.51;nan;93993.84;5006340;28;20264;-70
2023/01/10 09:58:32;;;;;;;42.53;23.83;;;;;;;7.48;nan;93991.44;5005220;28;20265;-70
2023/01/10 10:01:01;;;;;;;39.70;22.10;;;;;;;7.47;nan;93989.78;5004954;28;20210;-67
2023/01/10 10:03:35;;;;;;;42.65;24.38;;;;;;;7.49;nan;93977.94;5004684;28;20604;-69
2023/01/10 10:06:04;;;;;;;36.75;22.83;;;;;;;7.51;nan;93978.69;5004366;28;20307;-68
2023/01/10 10:08:31;;;;;;;38.13;22.92;;;;;;;7.50;nan;93974.50;5003554;28;20334;-69
2023/01/10 10:11:14;;;;;;;40.97;23.27;;;;;;;7.53;nan;93962.63;5005695;28;20218;-69
2023/01/10 10:13:49;;;;;;;41.92;23.27;;;;;;;7.43;nan;93975.63;5005535;28;20203;-68
2023/01/10 10:16:28;;;;;;;35.60;21.45;;;;;;;7.37;nan;93970.84;5005240;28;20946;-71
2023/01/10 10:19:05;;;;;;;44.35;21.73;;;;;;;7.28;nan;93966.13;5003996;28;21791;-68
2023/01/10 10:21:45;;;;;;;35.72;21.63;;;;;;;7.25;nan;93975.53;5003473;28;20203;-69
2023/01/10 10:24:38;;;;;;;39.20;22.20;;;;;;;7.24;nan;93974.69;5006414;28;20207;-69
2023/01/10 10:27:18;;;;;;;35.90;20.58;;;;;;;7.25;nan;93973.81;5009361;28;20227;-70
2023/01/10 10:30:20;;;;;;;36.92;22.02;;;;;;;7.29;nan;93965.25;5011872;28;20259;-69
2023/01/10 10:33:04;;;;;;;43.08;22.25;;;;;;;7.23;nan;93957.88;5005165;28;20875;-68
2023/01/10 10:35:37;;;;;;;39.50;21.35;;;;;;;7.32;nan;93955.03;5009935;28;22054;-70
2023/01/10 10:38:12;;;;;;;39.22;22.33;;;;;;;7.39;nan;93948.84;5008509;28;20237;-70
2023/01/10 10:40:44;;;;;;;41.30;22.60;;;;;;;7.42;nan;93950.44;5009255;28;20210;-70
2023/01/10 10:43:20;;;;;;;39.20;22.67;;;;;;;7.46;nan;93954.47;5010356;28;20203;-69
2023/01/10 10:45:50;;;;;;;38.60;21.80;;;;;;;7.48;nan;93951.00;5009981;28;20272;-69
2023/01/10 10:48:22;;;;;;;38.15;21.70;;;;;;;7.53;nan;93940.72;5007134;28;20203;-69
2023/01/10 10:50:58;;;;;;;37.90;21.92;;;;;;;7.37;nan;93935.44;5007646;28;20207;-69
2023/01/10 10:53:26;;;;;;;40.80;23.25;;;;;;;7.41;nan;93934.47;5008973;28;20209;-69
2023/01/10 10:55:53;;;;;;;42.83;22.73;;;;;;;7.40;nan;93930.28;5009720;28;20214;-69
2023/01/10 10:58:20;;;;;;;40.25;24.58;;;;;;;7.45;nan;93932.59;5009300;28;20238;-66
2023/01/10 11:00:47;;;;;;;36.13;22.50;;;;;;;7.45;nan;93940.19;5008792;28;20206;-67
2023/01/10 11:03:26;;;;;;;37.70;22.90;;;;;;;7.39;nan;93943.81;5009477;28;20715;-69
2023/01/10 11:05:53;;;;;;;38.67;23.00;;;;;;;7.44;nan;93944.41;5009508;28;20214;-69
2023/01/10 11:08:21;;;;;;;39.72;21.50;;;;;;;7.48;nan;93943.41;5009480;28;20203;-69
2023/01/10 11:10:53;;;;;;;34.92;21.83;;;;;;;7.53;nan;93942.41;5008395;28;20326;-70
2023/01/10 11:13:27;;;;;;;35.00;21.40;;;;;;;7.50;nan;93929.00;5009247;28;20203;-70
2023/01/10 11:15:54;;;;;;;32.47;21.60;;;;;;;7.55;nan;93925.50;5008744;28;20213;-68
2023/01/10 11:18:24;;;;;;;47.47;24.40;;;;;;;7.58;nan;93922.84;5007465;28;20217;-67
2023/01/10 11:20:56;;;;;;;35.40;21.35;;;;;;;7.70;nan;93922.31;5008719;28;20240;-69
2023/01/10 11:23:28;;;;;;;37.33;20.52;;;;;;;7.63;nan;93910.84;5007048;28;20210;-70
2023/01/10 11:25:57;;;;;;;31.77;19.58;;;;;;;7.61;nan;93915.97;5007572;28;20202;-67
2023/01/10 11:28:29;;;;;;;38.63;20.23;;;;;;;7.65;nan;93919.19;5007584;28;20345;-71
2023/01/10 11:30:57;;;;;;;36.75;21.15;;;;;;;7.58;nan;93917.78;5006725;28;20839;-69
2023/01/10 11:33:28;;;;;;;33.83;19.27;;;;;;;7.54;nan;93921.31;5009566;28;20264;-71
2023/01/10 11:36:00;;;;;;;30.35;19.38;;;;;;;7.54;nan;93927.19;5006841;28;20720;-69
2023/01/10 11:38:29;;;;;;;37.92;19.98;;;;;;;7.48;nan;93920.66;5006526;28;20832;-67
2023/01/10 11:40:59;;;;;;;32.88;19.50;;;;;;;7.55;nan;93915.38;5007139;28;20213;-71
2023/01/10 11:43:33;;;;;;;35.97;19.92;;;;;;;7.55;nan;93908.63;5008143;28;20203;-69
2023/01/10 11:46:02;;;;;;;30.52;19.58;;;;;;;7.58;nan;93912.72;5007933;28;20559;-69
2023/01/10 11:48:45;;;;;;;35.15;21.17;;;;;;;7.60;nan;93905.91;5008783;28;20327;-68
2023/01/10 11:51:23;;;;;;;35.80;21.00;;;;;;;7.58;nan;93907.66;5005717;28;20222;-68
2023/01/10 11:53:55;;;;;;;43.10;23.10;;;;;;;7.50;nan;93910.50;5008342;28;20207;-67
2023/01/10 11:56:28;;;;;;;37.35;22.40;;;;;;;7.55;nan;93912.84;5007725;28;21346;-66
2023/01/10 11:58:57;;;;;;;42.72;22.73;;;;;;;7.48;nan;93902.97;5006766;28;20260;-67
2023/01/10 12:01:30;;;;;;;40.78;23.23;;;;;;;7.38;nan;93899.19;5007924;28;20206;-69
2023/01/10 12:03:58;;;;;;;39.25;23.77;;;;;;;7.46;nan;93898.84;5008162;28;20573;-68